sensor_id;sensor_type;location;lat;lon;timestamp;temperature;humidity
72114;SHT31;59989;46.220;19.888;2023-10-19T00:00:49;7.58;84.18
72114;SHT31;59989;46.220;19.888;2023-10-19T00:03:52;7.59;84.08
72114;SHT31;59989;46.220;19.888;2023-10-19T00:06:58;7.65;84.08
72114;SHT31;59989;46.220;19.888;2023-10-19T00:10:01;7.68;83.70
72114;SHT31;59989;46.220;19.888;2023-10-19T00:13:06;7.74;83.51
72114;SHT31;59989;46.220;19.888;2023-10-19T00:16:10;7.77;83.40
72114;SHT31;59989;46.220;19.888;2023-10-19T00:19:20;7.85;83.50
72114;SHT31;59989;46.220;19.888;2023-10-19T00:22:23;7.86;83.50
72114;SHT31;59989;46.220;19.888;2023-10-19T00:25:26;7.93;83.23
72114;SHT31;59989;46.220;19.888;2023-10-19T00:28:29;7.99;83.10
72114;SHT31;59989;46.220;19.888;2023-10-19T00:31:32;8.05;83.16
72114;SHT31;59989;46.220;19.888;2023-10-19T00:34:42;8.09;83.03
72114;SHT31;59989;46.220;19.888;2023-10-19T00:37:54;8.14;83.03
72114;SHT31;59989;46.220;19.888;2023-10-19T00:40:59;8.16;83.04
72114;SHT31;59989;46.220;19.888;2023-10-19T00:44:14;8.23;82.83
72114;SHT31;59989;46.220;19.888;2023-10-19T00:47:20;8.30;82.59
72114;SHT31;59989;46.220;19.888;2023-10-19T00:50:26;8.33;82.68
72114;SHT31;59989;46.220;19.888;2023-10-19T00:53:35;8.43;82.66
72114;SHT31;59989;46.220;19.888;2023-10-19T00:56:45;8.47;82.30
72114;SHT31;59989;46.220;19.888;2023-10-19T00:59:51;8.51;81.75
72114;SHT31;59989;46.220;19.888;2023-10-19T01:02:58;8.58;82.15
72114;SHT31;59989;46.220;19.888;2023-10-19T01:06:07;8.63;81.64
72114;SHT31;59989;46.220;19.888;2023-10-19T01:09:14;8.71;81.54
72114;SHT31;59989;46.220;19.888;2023-10-19T01:12:17;8.72;81.59
72114;SHT31;59989;46.220;19.888;2023-10-19T01:15:36;8.78;81.31
72114;SHT31;59989;46.220;19.888;2023-10-19T01:18:39;8.82;81.09
72114;SHT31;59989;46.220;19.888;2023-10-19T01:21:45;8.81;81.23
72114;SHT31;59989;46.220;19.888;2023-10-19T01:24:53;8.85;81.10
72114;SHT31;59989;46.220;19.888;2023-10-19T01:27:57;8.84;80.95
72114;SHT31;59989;46.220;19.888;2023-10-19T01:31:00;8.88;81.44
72114;SHT31;59989;46.220;19.888;2023-10-19T01:34:08;8.92;82.32
72114;SHT31;59989;46.220;19.888;2023-10-19T01:37:11;8.95;82.29
72114;SHT31;59989;46.220;19.888;2023-10-19T01:40:14;8.96;83.11
72114;SHT31;59989;46.220;19.888;2023-10-19T01:43:22;8.92;83.34
72114;SHT31;59989;46.220;19.888;2023-10-19T01:46:30;8.93;83.69
72114;SHT31;59989;46.220;19.888;2023-10-19T01:49:39;8.91;83.81
72114;SHT31;59989;46.220;19.888;2023-10-19T01:52:43;8.93;83.95
72114;SHT31;59989;46.220;19.888;2023-10-19T01:55:46;8.95;84.25
72114;SHT31;59989;46.220;19.888;2023-10-19T01:58:50;8.96;84.35
72114;SHT31;59989;46.220;19.888;2023-10-19T02:01:55;8.98;84.81
72114;SHT31;59989;46.220;19.888;2023-10-19T02:04:58;9.02;84.79
72114;SHT31;59989;46.220;19.888;2023-10-19T02:08:02;9.05;85.41
72114;SHT31;59989;46.220;19.888;2023-10-19T02:11:06;9.09;85.49
72114;SHT31;59989;46.220;19.888;2023-10-19T02:14:19;9.12;85.89
72114;SHT31;59989;46.220;19.888;2023-10-19T02:17:22;9.13;85.67
72114;SHT31;59989;46.220;19.888;2023-10-19T02:20:26;9.11;85.95
72114;SHT31;59989;46.220;19.888;2023-10-19T02:23:42;9.15;86.00
72114;SHT31;59989;46.220;19.888;2023-10-19T02:26:46;9.16;86.37
72114;SHT31;59989;46.220;19.888;2023-10-19T02:29:49;9.20;86.14
72114;SHT31;59989;46.220;19.888;2023-10-19T02:32:52;9.20;85.62
72114;SHT31;59989;46.220;19.888;2023-10-19T02:35:55;9.26;85.16
72114;SHT31;59989;46.220;19.888;2023-10-19T02:39:01;9.27;84.89
72114;SHT31;59989;46.220;19.888;2023-10-19T02:42:10;9.32;84.75
72114;SHT31;59989;46.220;19.888;2023-10-19T02:45:17;9.37;84.53
72114;SHT31;59989;46.220;19.888;2023-10-19T02:48:20;9.40;84.56
72114;SHT31;59989;46.220;19.888;2023-10-19T02:51:23;9.42;84.20
72114;SHT31;59989;46.220;19.888;2023-10-19T02:54:25;9.44;84.59
72114;SHT31;59989;46.220;19.888;2023-10-19T02:57:30;9.46;84.35
72114;SHT31;59989;46.220;19.888;2023-10-19T03:00:39;9.47;84.53
72114;SHT31;59989;46.220;19.888;2023-10-19T03:03:41;9.53;84.32
72114;SHT31;59989;46.220;19.888;2023-10-19T03:06:45;9.53;84.51
72114;SHT31;59989;46.220;19.888;2023-10-19T03:09:48;9.55;83.42
72114;SHT31;59989;46.220;19.888;2023-10-19T03:12:51;9.60;83.62
72114;SHT31;59989;46.220;19.888;2023-10-19T03:15:56;9.63;83.52
72114;SHT31;59989;46.220;19.888;2023-10-19T03:19:00;9.64;83.42
72114;SHT31;59989;46.220;19.888;2023-10-19T03:22:02;9.69;83.71
72114;SHT31;59989;46.220;19.888;2023-10-19T03:25:08;9.69;83.63
72114;SHT31;59989;46.220;19.888;2023-10-19T03:28:29;9.70;83.86
72114;SHT31;59989;46.220;19.888;2023-10-19T03:31:37;9.75;83.82
72114;SHT31;59989;46.220;19.888;2023-10-19T03:34:45;9.74;83.29
72114;SHT31;59989;46.220;19.888;2023-10-19T03:37:53;9.77;84.01
72114;SHT31;59989;46.220;19.888;2023-10-19T03:40:56;9.75;84.02
72114;SHT31;59989;46.220;19.888;2023-10-19T03:44:02;9.77;84.28
72114;SHT31;59989;46.220;19.888;2023-10-19T03:47:05;9.77;84.50
72114;SHT31;59989;46.220;19.888;2023-10-19T03:50:14;9.80;84.24
72114;SHT31;59989;46.220;19.888;2023-10-19T03:53:17;9.81;84.11
72114;SHT31;59989;46.220;19.888;2023-10-19T03:56:21;9.81;84.18
72114;SHT31;59989;46.220;19.888;2023-10-19T03:59:24;9.84;83.95
72114;SHT31;59989;46.220;19.888;2023-10-19T04:02:32;9.85;84.02
72114;SHT31;59989;46.220;19.888;2023-10-19T04:05:40;9.87;84.04
72114;SHT31;59989;46.220;19.888;2023-10-19T04:08:43;9.90;84.01
72114;SHT31;59989;46.220;19.888;2023-10-19T04:11:52;9.91;83.94
72114;SHT31;59989;46.220;19.888;2023-10-19T04:14:55;9.92;84.03
72114;SHT31;59989;46.220;19.888;2023-10-19T04:18:21;9.92;84.29
72114;SHT31;59989;46.220;19.888;2023-10-19T04:21:24;9.95;84.31
72114;SHT31;59989;46.220;19.888;2023-10-19T04:24:26;9.97;84.41
72114;SHT31;59989;46.220;19.888;2023-10-19T04:27:29;9.97;84.36
72114;SHT31;59989;46.220;19.888;2023-10-19T04:30:34;9.99;84.37
72114;SHT31;59989;46.220;19.888;2023-10-19T04:33:39;10.01;84.28
72114;SHT31;59989;46.220;19.888;2023-10-19T04:36:44;10.05;84.20
72114;SHT31;59989;46.220;19.888;2023-10-19T04:39:47;10.03;83.97
72114;SHT31;59989;46.220;19.888;2023-10-19T04:42:52;10.12;84.14
72114;SHT31;59989;46.220;19.888;2023-10-19T04:45:55;10.18;83.91
72114;SHT31;59989;46.220;19.888;2023-10-19T04:48:58;10.23;83.54
72114;SHT31;59989;46.220;19.888;2023-10-19T04:52:00;10.25;83.95
72114;SHT31;59989;46.220;19.888;2023-10-19T04:55:03;10.32;83.92
72114;SHT31;59989;46.220;19.888;2023-10-19T04:58:05;10.35;84.04
72114;SHT31;59989;46.220;19.888;2023-10-19T05:01:08;10.35;84.88
72114;SHT31;59989;46.220;19.888;2023-10-19T05:04:14;10.32;86.76
72114;SHT31;59989;46.220;19.888;2023-10-19T05:07:16;10.25;87.78
72114;SHT31;59989;46.220;19.888;2023-10-19T05:10:19;10.21;88.64
72114;SHT31;59989;46.220;19.888;2023-10-19T05:13:23;10.16;89.11
72114;SHT31;59989;46.220;19.888;2023-10-19T05:16:26;10.11;89.66
72114;SHT31;59989;46.220;19.888;2023-10-19T05:19:29;10.13;89.16
72114;SHT31;59989;46.220;19.888;2023-10-19T05:22:31;10.13;89.15
72114;SHT31;59989;46.220;19.888;2023-10-19T05:25:36;10.21;89.23
72114;SHT31;59989;46.220;19.888;2023-10-19T05:28:39;10.19;88.50
72114;SHT31;59989;46.220;19.888;2023-10-19T05:31:41;10.28;89.16
72114;SHT31;59989;46.220;19.888;2023-10-19T05:34:44;10.32;88.87
72114;SHT31;59989;46.220;19.888;2023-10-19T05:37:46;10.35;89.11
72114;SHT31;59989;46.220;19.888;2023-10-19T05:40:50;10.40;89.39
72114;SHT31;59989;46.220;19.888;2023-10-19T05:43:54;10.45;89.28
72114;SHT31;59989;46.220;19.888;2023-10-19T05:46:57;10.49;89.45
72114;SHT31;59989;46.220;19.888;2023-10-19T05:50:01;10.56;89.81
72114;SHT31;59989;46.220;19.888;2023-10-19T05:53:05;10.57;89.73
72114;SHT31;59989;46.220;19.888;2023-10-19T05:56:07;10.61;89.52
72114;SHT31;59989;46.220;19.888;2023-10-19T05:59:10;10.71;89.99
72114;SHT31;59989;46.220;19.888;2023-10-19T06:02:12;10.76;89.93
72114;SHT31;59989;46.220;19.888;2023-10-19T06:05:16;10.79;90.02
72114;SHT31;59989;46.220;19.888;2023-10-19T06:08:19;10.85;90.64
72114;SHT31;59989;46.220;19.888;2023-10-19T06:11:21;10.85;91.06
72114;SHT31;59989;46.220;19.888;2023-10-19T06:14:24;10.80;91.18
72114;SHT31;59989;46.220;19.888;2023-10-19T06:17:27;10.84;91.43
72114;SHT31;59989;46.220;19.888;2023-10-19T06:20:30;10.88;91.42
72114;SHT31;59989;46.220;19.888;2023-10-19T06:23:32;11.00;90.93
72114;SHT31;59989;46.220;19.888;2023-10-19T06:26:35;11.08;90.92
72114;SHT31;59989;46.220;19.888;2023-10-19T06:29:38;11.11;90.95
72114;SHT31;59989;46.220;19.888;2023-10-19T06:32:41;11.17;90.95
72114;SHT31;59989;46.220;19.888;2023-10-19T06:35:44;11.24;90.51
72114;SHT31;59989;46.220;19.888;2023-10-19T06:38:46;11.29;90.45
72114;SHT31;59989;46.220;19.888;2023-10-19T06:41:50;11.38;90.60
72114;SHT31;59989;46.220;19.888;2023-10-19T06:44:53;11.46;90.71
72114;SHT31;59989;46.220;19.888;2023-10-19T06:47:58;11.52;89.96
72114;SHT31;59989;46.220;19.888;2023-10-19T06:51:06;11.59;89.89
72114;SHT31;59989;46.220;19.888;2023-10-19T06:54:09;11.63;89.94
72114;SHT31;59989;46.220;19.888;2023-10-19T06:57:11;11.75;89.47
72114;SHT31;59989;46.220;19.888;2023-10-19T07:00:16;11.77;89.64
72114;SHT31;59989;46.220;19.888;2023-10-19T07:03:24;11.87;89.90
72114;SHT31;59989;46.220;19.888;2023-10-19T07:06:27;11.93;89.27
72114;SHT31;59989;46.220;19.888;2023-10-19T07:09:30;12.00;89.22
72114;SHT31;59989;46.220;19.888;2023-10-19T07:12:36;12.04;88.76
72114;SHT31;59989;46.220;19.888;2023-10-19T07:15:40;12.12;88.91
72114;SHT31;59989;46.220;19.888;2023-10-19T07:18:43;12.14;88.47
72114;SHT31;59989;46.220;19.888;2023-10-19T07:21:46;12.31;88.67
72114;SHT31;59989;46.220;19.888;2023-10-19T07:24:51;12.40;88.05
72114;SHT31;59989;46.220;19.888;2023-10-19T07:27:53;12.48;87.98
72114;SHT31;59989;46.220;19.888;2023-10-19T07:30:56;12.52;87.80
72114;SHT31;59989;46.220;19.888;2023-10-19T07:34:01;12.64;87.64
72114;SHT31;59989;46.220;19.888;2023-10-19T07:37:05;12.66;86.37
72114;SHT31;59989;46.220;19.888;2023-10-19T07:40:10;12.78;87.54
72114;SHT31;59989;46.220;19.888;2023-10-19T07:43:16;12.89;86.60
72114;SHT31;59989;46.220;19.888;2023-10-19T07:46:18;13.07;86.27
72114;SHT31;59989;46.220;19.888;2023-10-19T07:49:21;13.20;86.38
72114;SHT31;59989;46.220;19.888;2023-10-19T07:52:24;13.43;85.65
72114;SHT31;59989;46.220;19.888;2023-10-19T07:55:26;13.61;84.66
72114;SHT31;59989;46.220;19.888;2023-10-19T07:58:29;13.61;84.64
72114;SHT31;59989;46.220;19.888;2023-10-19T08:01:32;13.77;83.33
72114;SHT31;59989;46.220;19.888;2023-10-19T08:04:35;14.09;83.19
72114;SHT31;59989;46.220;19.888;2023-10-19T08:07:39;14.06;82.74
72114;SHT31;59989;46.220;19.888;2023-10-19T08:10:45;14.06;82.90
72114;SHT31;59989;46.220;19.888;2023-10-19T08:13:47;14.60;81.32
72114;SHT31;59989;46.220;19.888;2023-10-19T08:16:52;14.98;80.01
72114;SHT31;59989;46.220;19.888;2023-10-19T08:19:55;15.31;78.56
72114;SHT31;59989;46.220;19.888;2023-10-19T08:23:00;15.57;77.16
72114;SHT31;59989;46.220;19.888;2023-10-19T08:26:04;15.62;76.16
72114;SHT31;59989;46.220;19.888;2023-10-19T08:29:08;16.07;75.43
72114;SHT31;59989;46.220;19.888;2023-10-19T08:32:17;16.61;73.57
72114;SHT31;59989;46.220;19.888;2023-10-19T08:35:21;16.86;72.68
72114;SHT31;59989;46.220;19.888;2023-10-19T08:38:28;17.18;71.14
72114;SHT31;59989;46.220;19.888;2023-10-19T08:41:32;17.86;70.36
72114;SHT31;59989;46.220;19.888;2023-10-19T08:44:37;18.37;68.09
72114;SHT31;59989;46.220;19.888;2023-10-19T08:48:00;18.30;66.95
72114;SHT31;59989;46.220;19.888;2023-10-19T08:51:09;18.41;67.33
72114;SHT31;59989;46.220;19.888;2023-10-19T08:54:13;18.40;67.54
72114;SHT31;59989;46.220;19.888;2023-10-19T08:57:16;18.12;67.49
72114;SHT31;59989;46.220;19.888;2023-10-19T09:00:20;17.74;68.27
72114;SHT31;59989;46.220;19.888;2023-10-19T09:03:27;17.57;68.98
72114;SHT31;59989;46.220;19.888;2023-10-19T09:06:34;17.57;70.21
72114;SHT31;59989;46.220;19.888;2023-10-19T09:09:45;17.76;68.90
72114;SHT31;59989;46.220;19.888;2023-10-19T09:12:59;18.32;68.26
72114;SHT31;59989;46.220;19.888;2023-10-19T09:16:05;18.55;67.29
72114;SHT31;59989;46.220;19.888;2023-10-19T09:19:07;18.91;65.90
72114;SHT31;59989;46.220;19.888;2023-10-19T09:22:10;18.99;65.38
72114;SHT31;59989;46.220;19.888;2023-10-19T09:25:20;19.01;65.61
72114;SHT31;59989;46.220;19.888;2023-10-19T09:28:24;19.11;65.24
72114;SHT31;59989;46.220;19.888;2023-10-19T09:31:27;19.73;63.35
72114;SHT31;59989;46.220;19.888;2023-10-19T09:34:30;19.87;63.46
72114;SHT31;59989;46.220;19.888;2023-10-19T09:37:35;19.74;62.86
72114;SHT31;59989;46.220;19.888;2023-10-19T09:40:39;19.60;63.12
72114;SHT31;59989;46.220;19.888;2023-10-19T09:43:47;19.81;62.83
72114;SHT31;59989;46.220;19.888;2023-10-19T09:46:53;19.78;62.28
72114;SHT31;59989;46.220;19.888;2023-10-19T09:49:59;20.07;62.11
72114;SHT31;59989;46.220;19.888;2023-10-19T09:53:02;20.43;60.98
72114;SHT31;59989;46.220;19.888;2023-10-19T09:56:23;20.53;61.24
72114;SHT31;59989;46.220;19.888;2023-10-19T09:59:37;20.52;60.75
72114;SHT31;59989;46.220;19.888;2023-10-19T10:02:44;20.46;60.77
72114;SHT31;59989;46.220;19.888;2023-10-19T10:05:49;20.49;61.34
72114;SHT31;59989;46.220;19.888;2023-10-19T10:08:52;20.84;60.67
72114;SHT31;59989;46.220;19.888;2023-10-19T10:11:55;20.69;60.82
72114;SHT31;59989;46.220;19.888;2023-10-19T10:15:02;20.69;60.75
72114;SHT31;59989;46.220;19.888;2023-10-19T10:18:12;21.08;59.55
72114;SHT31;59989;46.220;19.888;2023-10-19T10:21:20;20.91;60.36
72114;SHT31;59989;46.220;19.888;2023-10-19T10:24:23;21.08;60.21
72114;SHT31;59989;46.220;19.888;2023-10-19T10:27:25;20.87;60.67
72114;SHT31;59989;46.220;19.888;2023-10-19T10:30:28;20.46;61.52
72114;SHT31;59989;46.220;19.888;2023-10-19T10:33:51;20.08;62.33
72114;SHT31;59989;46.220;19.888;2023-10-19T10:37:01;19.77;63.40
72114;SHT31;59989;46.220;19.888;2023-10-19T10:40:08;19.53;64.45
72114;SHT31;59989;46.220;19.888;2023-10-19T10:43:11;19.42;65.36
72114;SHT31;59989;46.220;19.888;2023-10-19T10:46:14;19.34;65.67
72114;SHT31;59989;46.220;19.888;2023-10-19T10:49:16;19.30;65.59
72114;SHT31;59989;46.220;19.888;2023-10-19T10:52:33;19.09;66.21
72114;SHT31;59989;46.220;19.888;2023-10-19T10:55:36;19.09;66.77
72114;SHT31;59989;46.220;19.888;2023-10-19T10:58:38;19.03;67.16
72114;SHT31;59989;46.220;19.888;2023-10-19T11:01:41;18.94;67.65
72114;SHT31;59989;46.220;19.888;2023-10-19T11:04:45;18.87;68.40
72114;SHT31;59989;46.220;19.888;2023-10-19T11:08:08;19.02;68.73
72114;SHT31;59989;46.220;19.888;2023-10-19T11:11:15;19.16;68.68
72114;SHT31;59989;46.220;19.888;2023-10-19T11:14:18;19.27;68.58
72114;SHT31;59989;46.220;19.888;2023-10-19T11:17:21;19.34;68.24
72114;SHT31;59989;46.220;19.888;2023-10-19T11:20:30;19.42;67.66
72114;SHT31;59989;46.220;19.888;2023-10-19T11:23:37;19.36;68.19
72114;SHT31;59989;46.220;19.888;2023-10-19T11:26:41;19.33;68.24
72114;SHT31;59989;46.220;19.888;2023-10-19T11:29:56;19.18;69.54
72114;SHT31;59989;46.220;19.888;2023-10-19T11:33:01;19.26;68.42
72114;SHT31;59989;46.220;19.888;2023-10-19T11:36:04;19.30;68.60
72114;SHT31;59989;46.220;19.888;2023-10-19T11:39:07;19.32;68.99
72114;SHT31;59989;46.220;19.888;2023-10-19T11:42:14;19.37;68.41
72114;SHT31;59989;46.220;19.888;2023-10-19T11:45:17;19.39;68.63
72114;SHT31;59989;46.220;19.888;2023-10-19T11:48:20;19.39;68.50
72114;SHT31;59989;46.220;19.888;2023-10-19T11:51:23;19.47;68.50
72114;SHT31;59989;46.220;19.888;2023-10-19T11:54:25;19.47;68.80
72114;SHT31;59989;46.220;19.888;2023-10-19T11:57:28;19.53;68.94
72114;SHT31;59989;46.220;19.888;2023-10-19T12:00:31;19.57;68.54
72114;SHT31;59989;46.220;19.888;2023-10-19T12:03:36;19.71;67.53
72114;SHT31;59989;46.220;19.888;2023-10-19T12:06:39;19.85;67.07
72114;SHT31;59989;46.220;19.888;2023-10-19T12:09:42;20.08;65.46
72114;SHT31;59989;46.220;19.888;2023-10-19T12:12:44;20.25;66.11
72114;SHT31;59989;46.220;19.888;2023-10-19T12:16:03;20.46;65.64
72114;SHT31;59989;46.220;19.888;2023-10-19T12:19:07;21.01;63.75
72114;SHT31;59989;46.220;19.888;2023-10-19T12:22:10;21.34;62.20
72114;SHT31;59989;46.220;19.888;2023-10-19T12:25:14;21.94;60.28
72114;SHT31;59989;46.220;19.888;2023-10-19T12:28:17;22.41;59.10
72114;SHT31;59989;46.220;19.888;2023-10-19T12:31:19;22.82;57.68
72114;SHT31;59989;46.220;19.888;2023-10-19T12:34:25;23.05;57.76
72114;SHT31;59989;46.220;19.888;2023-10-19T12:37:31;23.39;57.57
72114;SHT31;59989;46.220;19.888;2023-10-19T12:40:35;24.35;55.66
72114;SHT31;59989;46.220;19.888;2023-10-19T12:43:38;24.81;54.15
72114;SHT31;59989;46.220;19.888;2023-10-19T12:46:40;25.52;52.81
72114;SHT31;59989;46.220;19.888;2023-10-19T12:49:43;26.31;50.78
72114;SHT31;59989;46.220;19.888;2023-10-19T12:52:49;26.67;49.09
72114;SHT31;59989;46.220;19.888;2023-10-19T12:55:52;27.88;46.44
72114;SHT31;59989;46.220;19.888;2023-10-19T12:58:54;27.57;46.71
72114;SHT31;59989;46.220;19.888;2023-10-19T13:01:57;28.67;44.72
72114;SHT31;59989;46.220;19.888;2023-10-19T13:05:01;29.19;43.85
72114;SHT31;59989;46.220;19.888;2023-10-19T13:08:11;29.77;42.56
72114;SHT31;59989;46.220;19.888;2023-10-19T13:11:17;29.22;43.25
72114;SHT31;59989;46.220;19.888;2023-10-19T13:14:21;28.60;44.49
72114;SHT31;59989;46.220;19.888;2023-10-19T13:17:23;28.29;45.01
72114;SHT31;59989;46.220;19.888;2023-10-19T13:20:28;27.02;47.41
72114;SHT31;59989;46.220;19.888;2023-10-19T13:23:36;27.37;46.86
72114;SHT31;59989;46.220;19.888;2023-10-19T13:26:38;28.05;45.85
72114;SHT31;59989;46.220;19.888;2023-10-19T13:29:42;27.78;46.20
72114;SHT31;59989;46.220;19.888;2023-10-19T13:32:45;27.53;46.39
72114;SHT31;59989;46.220;19.888;2023-10-19T13:35:48;27.20;46.85
72114;SHT31;59989;46.220;19.888;2023-10-19T13:38:51;26.01;49.16
72114;SHT31;59989;46.220;19.888;2023-10-19T13:41:53;25.32;50.17
72114;SHT31;59989;46.220;19.888;2023-10-19T13:44:56;25.10;50.88
72114;SHT31;59989;46.220;19.888;2023-10-19T13:47:59;25.17;50.72
72114;SHT31;59989;46.220;19.888;2023-10-19T13:51:02;25.25;51.39
72114;SHT31;59989;46.220;19.888;2023-10-19T13:54:15;25.12;50.74
72114;SHT31;59989;46.220;19.888;2023-10-19T13:57:18;25.11;51.56
72114;SHT31;59989;46.220;19.888;2023-10-19T14:00:22;25.12;51.45
72114;SHT31;59989;46.220;19.888;2023-10-19T14:03:32;24.83;52.89
72114;SHT31;59989;46.220;19.888;2023-10-19T14:06:35;24.35;53.73
72114;SHT31;59989;46.220;19.888;2023-10-19T14:09:38;24.29;53.61
72114;SHT31;59989;46.220;19.888;2023-10-19T14:12:40;24.57;53.01
72114;SHT31;59989;46.220;19.888;2023-10-19T14:15:44;24.37;53.27
72114;SHT31;59989;46.220;19.888;2023-10-19T14:18:47;23.66;55.17
72114;SHT31;59989;46.220;19.888;2023-10-19T14:21:49;23.34;55.69
72114;SHT31;59989;46.220;19.888;2023-10-19T14:24:53;23.10;56.54
72114;SHT31;59989;46.220;19.888;2023-10-19T14:27:57;22.89;57.29
72114;SHT31;59989;46.220;19.888;2023-10-19T14:31:04;22.65;58.18
72114;SHT31;59989;46.220;19.888;2023-10-19T14:34:10;22.37;58.79
72114;SHT31;59989;46.220;19.888;2023-10-19T14:37:12;22.25;59.59
72114;SHT31;59989;46.220;19.888;2023-10-19T14:40:18;22.04;60.36
72114;SHT31;59989;46.220;19.888;2023-10-19T14:43:24;21.97;60.56
72114;SHT31;59989;46.220;19.888;2023-10-19T14:46:28;21.93;60.77
72114;SHT31;59989;46.220;19.888;2023-10-19T14:49:31;21.93;60.16
72114;SHT31;59989;46.220;19.888;2023-10-19T14:52:35;21.92;59.75
72114;SHT31;59989;46.220;19.888;2023-10-19T14:55:37;21.88;59.60
72114;SHT31;59989;46.220;19.888;2023-10-19T14:58:40;21.86;59.79
72114;SHT31;59989;46.220;19.888;2023-10-19T15:01:43;21.76;60.07
72114;SHT31;59989;46.220;19.888;2023-10-19T15:04:46;21.78;59.86
72114;SHT31;59989;46.220;19.888;2023-10-19T15:07:50;21.81;59.65
72114;SHT31;59989;46.220;19.888;2023-10-19T15:10:56;21.76;60.25
72114;SHT31;59989;46.220;19.888;2023-10-19T15:13:59;21.73;60.46
72114;SHT31;59989;46.220;19.888;2023-10-19T15:17:05;21.66;60.69
72114;SHT31;59989;46.220;19.888;2023-10-19T15:20:11;21.58;61.13
72114;SHT31;59989;46.220;19.888;2023-10-19T15:23:13;21.37;61.95
72114;SHT31;59989;46.220;19.888;2023-10-19T15:26:16;21.18;62.66
72114;SHT31;59989;46.220;19.888;2023-10-19T15:29:19;21.08;62.72
72114;SHT31;59989;46.220;19.888;2023-10-19T15:32:23;21.01;62.83
72114;SHT31;59989;46.220;19.888;2023-10-19T15:35:27;20.94;62.51
72114;SHT31;59989;46.220;19.888;2023-10-19T15:38:30;20.90;62.49
72114;SHT31;59989;46.220;19.888;2023-10-19T15:41:32;20.76;62.90
72114;SHT31;59989;46.220;19.888;2023-10-19T15:44:34;20.66;63.10
72114;SHT31;59989;46.220;19.888;2023-10-19T15:47:38;20.55;63.37
72114;SHT31;59989;46.220;19.888;2023-10-19T15:50:42;20.50;63.47
72114;SHT31;59989;46.220;19.888;2023-10-19T15:53:45;20.45;63.50
72114;SHT31;59989;46.220;19.888;2023-10-19T15:56:48;20.36;63.90
72114;SHT31;59989;46.220;19.888;2023-10-19T15:59:51;20.25;64.33
72114;SHT31;59989;46.220;19.888;2023-10-19T16:02:54;20.19;64.56
72114;SHT31;59989;46.220;19.888;2023-10-19T16:05:57;20.09;64.54
72114;SHT31;59989;46.220;19.888;2023-10-19T16:08:59;20.00;65.27
72114;SHT31;59989;46.220;19.888;2023-10-19T16:12:02;19.95;65.44
72114;SHT31;59989;46.220;19.888;2023-10-19T16:15:08;19.94;65.65
72114;SHT31;59989;46.220;19.888;2023-10-19T16:18:12;19.90;67.23
72114;SHT31;59989;46.220;19.888;2023-10-19T16:21:14;19.77;69.76
72114;SHT31;59989;46.220;19.888;2023-10-19T16:24:17;19.59;70.95
72114;SHT31;59989;46.220;19.888;2023-10-19T16:27:20;19.50;71.13
72114;SHT31;59989;46.220;19.888;2023-10-19T16:30:23;19.43;70.01
72114;SHT31;59989;46.220;19.888;2023-10-19T16:33:28;19.32;70.42
72114;SHT31;59989;46.220;19.888;2023-10-19T16:36:31;19.30;69.82
72114;SHT31;59989;46.220;19.888;2023-10-19T16:39:34;19.29;70.31
72114;SHT31;59989;46.220;19.888;2023-10-19T16:42:36;19.20;70.79
72114;SHT31;59989;46.220;19.888;2023-10-19T16:45:39;19.18;70.34
72114;SHT31;59989;46.220;19.888;2023-10-19T16:48:42;19.19;70.08
72114;SHT31;59989;46.220;19.888;2023-10-19T16:51:45;19.20;69.85
72114;SHT31;59989;46.220;19.888;2023-10-19T16:54:49;19.13;70.08
72114;SHT31;59989;46.220;19.888;2023-10-19T16:57:53;19.08;70.32
72114;SHT31;59989;46.220;19.888;2023-10-19T17:00:57;19.08;69.70
72114;SHT31;59989;46.220;19.888;2023-10-19T17:04:03;19.11;69.64
72114;SHT31;59989;46.220;19.888;2023-10-19T17:07:07;19.01;69.99
72114;SHT31;59989;46.220;19.888;2023-10-19T17:10:12;18.99;69.81
72114;SHT31;59989;46.220;19.888;2023-10-19T17:13:15;18.94;70.16
72114;SHT31;59989;46.220;19.888;2023-10-19T17:16:19;18.91;70.28
72114;SHT31;59989;46.220;19.888;2023-10-19T17:19:22;18.89;69.96
72114;SHT31;59989;46.220;19.888;2023-10-19T17:22:26;18.82;70.39
72114;SHT31;59989;46.220;19.888;2023-10-19T17:25:31;18.82;70.40
72114;SHT31;59989;46.220;19.888;2023-10-19T17:28:34;18.78;70.36
72114;SHT31;59989;46.220;19.888;2023-10-19T17:31:37;18.76;70.54
72114;SHT31;59989;46.220;19.888;2023-10-19T17:34:41;18.75;70.62
72114;SHT31;59989;46.220;19.888;2023-10-19T17:37:44;18.75;70.54
72114;SHT31;59989;46.220;19.888;2023-10-19T17:40:46;18.79;70.36
72114;SHT31;59989;46.220;19.888;2023-10-19T17:43:50;18.74;70.33
72114;SHT31;59989;46.220;19.888;2023-10-19T17:46:53;18.69;70.89
72114;SHT31;59989;46.220;19.888;2023-10-19T17:49:57;18.78;70.48
72114;SHT31;59989;46.220;19.888;2023-10-19T17:53:00;18.78;70.32
72114;SHT31;59989;46.220;19.888;2023-10-19T17:56:03;18.72;70.52
72114;SHT31;59989;46.220;19.888;2023-10-19T17:59:08;18.71;70.45
72114;SHT31;59989;46.220;19.888;2023-10-19T18:02:12;18.84;70.01
72114;SHT31;59989;46.220;19.888;2023-10-19T18:05:16;18.88;70.07
72114;SHT31;59989;46.220;19.888;2023-10-19T18:08:20;18.81;70.30
72114;SHT31;59989;46.220;19.888;2023-10-19T18:11:23;18.87;70.13
72114;SHT31;59989;46.220;19.888;2023-10-19T18:14:25;18.96;69.78
72114;SHT31;59989;46.220;19.888;2023-10-19T18:17:28;18.98;70.14
72114;SHT31;59989;46.220;19.888;2023-10-19T18:20:32;18.98;70.04
72114;SHT31;59989;46.220;19.888;2023-10-19T18:23:35;18.96;69.87
72114;SHT31;59989;46.220;19.888;2023-10-19T18:26:38;18.92;70.07
72114;SHT31;59989;46.220;19.888;2023-10-19T18:29:41;18.98;70.20
72114;SHT31;59989;46.220;19.888;2023-10-19T18:32:46;18.92;70.23
72114;SHT31;59989;46.220;19.888;2023-10-19T18:35:49;18.88;70.64
72114;SHT31;59989;46.220;19.888;2023-10-19T18:38:51;18.85;70.78
72114;SHT31;59989;46.220;19.888;2023-10-19T18:41:54;18.88;70.89
72114;SHT31;59989;46.220;19.888;2023-10-19T18:44:58;18.91;70.54
72114;SHT31;59989;46.220;19.888;2023-10-19T18:48:01;18.91;70.41
72114;SHT31;59989;46.220;19.888;2023-10-19T18:51:05;18.89;70.64
72114;SHT31;59989;46.220;19.888;2023-10-19T18:54:07;18.88;70.75
72114;SHT31;59989;46.220;19.888;2023-10-19T18:57:10;18.98;70.23
72114;SHT31;59989;46.220;19.888;2023-10-19T19:00:14;18.96;70.50
72114;SHT31;59989;46.220;19.888;2023-10-19T19:03:17;19.01;70.46
72114;SHT31;59989;46.220;19.888;2023-10-19T19:06:19;18.95;70.61
72114;SHT31;59989;46.220;19.888;2023-10-19T19:09:22;18.87;70.73
72114;SHT31;59989;46.220;19.888;2023-10-19T19:12:24;18.82;71.00